createdAt,value
2023-01-30T00:01:04.083Z,5.96
2023-01-30T00:03:31.653Z,5.94
2023-01-30T00:05:59.207Z,5.95
2023-01-30T00:08:26.750Z,5.95
2023-01-30T00:10:54.124Z,5.83
2023-01-30T00:13:21.476Z,5.89
2023-01-30T00:15:49.023Z,5.85
2023-01-30T00:18:16.554Z,5.88
2023-01-30T00:20:43.786Z,5.82
2023-01-30T00:23:11.245Z,5.89
2023-01-30T00:25:38.617Z,5.90
2023-01-30T00:28:06.174Z,6.02
2023-01-30T00:30:33.488Z,6.00
2023-01-30T00:33:00.833Z,6.05
2023-01-30T00:35:31.098Z,6.00
2023-01-30T00:37:59.836Z,6.04
2023-01-30T00:40:28.766Z,6.06
2023-01-30T00:43:14.911Z,6.03
2023-01-30T00:46:03.857Z,5.99
2023-01-30T00:48:32.000Z,6.00
2023-01-30T00:50:59.435Z,5.95
2023-01-30T00:53:28.196Z,5.91
2023-01-30T00:55:56.079Z,5.81
2023-01-30T00:58:25.022Z,5.84
2023-01-30T01:00:52.892Z,5.76
2023-01-30T01:03:20.770Z,5.77
2023-01-30T01:05:48.719Z,5.83
2023-01-30T01:08:16.815Z,5.82
2023-01-30T01:10:44.445Z,5.79
2023-01-30T01:13:12.171Z,5.76
2023-01-30T01:15:39.737Z,5.85
2023-01-30T01:18:07.482Z,6.02
2023-01-30T01:20:34.930Z,6.01
2023-01-30T01:23:03.721Z,6.09
2023-01-30T01:25:31.123Z,6.17
2023-01-30T01:27:58.517Z,6.09
2023-01-30T01:30:25.738Z,6.03
2023-01-30T01:32:53.276Z,5.94
2023-01-30T01:35:20.744Z,5.90
2023-01-30T01:37:48.095Z,6.04
2023-01-30T01:40:36.033Z,6.03
2023-01-30T01:43:17.464Z,6.01
2023-01-30T01:45:48.707Z,6.09
2023-01-30T01:48:22.590Z,6.06
2023-01-30T01:50:56.047Z,6.08
2023-01-30T01:53:30.215Z,6.14
2023-01-30T01:56:00.595Z,6.13
2023-01-30T01:58:39.694Z,6.21
2023-01-30T02:01:08.165Z,6.16
2023-01-30T02:03:42.047Z,6.07
2023-01-30T02:06:11.524Z,6.04
2023-01-30T02:08:41.337Z,6.16
2023-01-30T02:11:15.007Z,6.08
2023-01-30T02:13:44.296Z,6.16
2023-01-30T02:16:11.851Z,6.16
2023-01-30T02:18:42.116Z,6.22
2023-01-30T02:21:40.733Z,6.12
2023-01-30T02:24:55.476Z,6.05
2023-01-30T02:27:32.325Z,6.07
2023-01-30T02:30:16.603Z,6.17
2023-01-30T02:32:54.708Z,6.19
2023-01-30T02:35:57.563Z,6.20
2023-01-30T02:38:57.822Z,6.11
2023-01-30T02:41:44.307Z,5.93
2023-01-30T02:44:22.971Z,5.94
2023-01-30T02:47:07.413Z,5.98
2023-01-30T02:49:38.705Z,5.93
2023-01-30T02:52:11.789Z,5.87
2023-01-30T02:54:39.472Z,5.94
2023-01-30T02:57:36.658Z,6.01
2023-01-30T03:00:06.304Z,6.11
2023-01-30T03:03:07.240Z,5.95
2023-01-30T03:05:50.418Z,5.93
2023-01-30T03:08:47.178Z,6.00
2023-01-30T03:11:45.343Z,5.90
2023-01-30T03:14:26.292Z,5.96
2023-01-30T03:16:57.728Z,5.95
2023-01-30T03:19:28.930Z,6.05
2023-01-30T03:21:56.631Z,6.02
2023-01-30T03:24:25.377Z,6.08
2023-01-30T03:27:02.845Z,6.07
2023-01-30T03:29:30.643Z,5.99
2023-01-30T03:31:58.193Z,6.05
2023-01-30T03:34:25.852Z,5.99
2023-01-30T03:36:53.281Z,5.99
2023-01-30T03:39:26.025Z,6.01
2023-01-30T03:41:54.604Z,5.95
2023-01-30T03:44:22.883Z,5.95
2023-01-30T03:46:50.401Z,6.00
2023-01-30T03:49:19.060Z,5.99
2023-01-30T03:51:47.527Z,6.11
2023-01-30T03:54:15.118Z,6.07
2023-01-30T03:56:42.594Z,6.13
2023-01-30T03:59:10.048Z,6.02
2023-01-30T04:01:43.120Z,6.02
2023-01-30T04:04:10.832Z,6.08
2023-01-30T04:06:38.114Z,6.13
2023-01-30T04:09:05.895Z,6.15
2023-01-30T04:11:39.099Z,6.16
2023-01-30T04:14:06.797Z,6.06
2023-01-30T04:16:42.479Z,6.06
2023-01-30T04:19:45.018Z,5.97
2023-01-30T04:22:13.316Z,5.91
2023-01-30T04:24:41.316Z,5.93
2023-01-30T04:27:09.436Z,5.84
2023-01-30T04:29:42.600Z,5.95
2023-01-30T04:32:12.109Z,6.00
2023-01-30T04:34:39.962Z,5.98
2023-01-30T04:37:07.693Z,5.88
2023-01-30T04:39:35.130Z,6.07
2023-01-30T04:42:02.669Z,6.07
2023-01-30T04:44:33.904Z,6.08
2023-01-30T04:47:11.604Z,6.06
2023-01-30T04:49:39.307Z,6.15
2023-01-30T04:52:07.365Z,6.11
2023-01-30T04:54:36.810Z,6.16
2023-01-30T04:57:04.462Z,6.24
2023-01-30T04:59:32.204Z,6.17
2023-01-30T05:02:03.237Z,6.23
2023-01-30T05:04:30.710Z,6.12
2023-01-30T05:06:58.081Z,6.08
2023-01-30T05:09:27.036Z,6.17
2023-01-30T05:11:54.503Z,6.16
2023-01-30T05:14:22.019Z,6.29
2023-01-30T05:16:49.473Z,6.26
2023-01-30T05:19:17.081Z,6.13
2023-01-30T05:21:44.397Z,6.11
2023-01-30T05:24:11.846Z,6.17
2023-01-30T05:26:39.241Z,6.24
2023-01-30T05:29:06.781Z,6.21
2023-01-30T05:31:35.792Z,6.22
2023-01-30T05:34:03.396Z,6.33
2023-01-30T05:36:30.609Z,6.39
2023-01-30T05:38:57.939Z,6.47
2023-01-30T05:41:25.387Z,6.41
2023-01-30T05:43:52.830Z,6.57
2023-01-30T05:46:20.375Z,6.50
2023-01-30T05:48:47.779Z,6.47
2023-01-30T05:51:19.581Z,6.43
2023-01-30T05:53:47.445Z,6.47
2023-01-30T05:56:15.581Z,6.43
2023-01-30T05:58:43.629Z,6.41
2023-01-30T06:01:13.169Z,6.52
2023-01-30T06:03:40.814Z,6.46
2023-01-30T06:06:08.579Z,6.40
2023-01-30T06:08:36.041Z,6.48
2023-01-30T06:11:04.264Z,6.48
2023-01-30T06:13:31.733Z,6.45
2023-01-30T06:15:58.962Z,6.54
2023-01-30T06:18:26.559Z,6.74
2023-01-30T06:20:54.636Z,6.71
2023-01-30T06:23:23.702Z,6.68
2023-01-30T06:25:52.414Z,6.70
2023-01-30T06:28:21.837Z,6.74
2023-01-30T06:30:49.520Z,6.67
2023-01-30T06:33:17.602Z,6.70
2023-01-30T06:35:45.453Z,6.71
2023-01-30T06:38:14.300Z,6.65
2023-01-30T06:40:45.372Z,6.62
2023-01-30T06:43:12.889Z,6.64
2023-01-30T06:45:40.551Z,6.65
2023-01-30T06:48:08.766Z,6.63
2023-01-30T06:50:36.850Z,6.62
2023-01-30T06:53:06.517Z,6.58
2023-01-30T06:55:35.953Z,6.66
2023-01-30T06:58:06.417Z,6.61
2023-01-30T07:00:34.853Z,6.66
2023-01-30T07:03:02.656Z,6.55
2023-01-30T07:05:30.252Z,6.63
2023-01-30T07:07:58.061Z,6.60
2023-01-30T07:10:26.423Z,6.55
2023-01-30T07:12:54.030Z,6.48
2023-01-30T07:15:21.440Z,6.46
2023-01-30T07:17:49.025Z,6.48
2023-01-30T07:20:16.847Z,6.47
2023-01-30T07:22:52.736Z,6.51
2023-01-30T07:25:22.357Z,6.63
2023-01-30T07:27:57.842Z,6.55
2023-01-30T07:30:27.413Z,6.58
2023-01-30T07:32:58.066Z,6.65
2023-01-30T07:35:28.844Z,6.63
2023-01-30T07:37:56.426Z,6.61
2023-01-30T07:40:24.714Z,6.69
2023-01-30T07:42:58.985Z,6.67
2023-01-30T07:45:41.581Z,6.77
2023-01-30T07:48:11.718Z,6.72
2023-01-30T07:50:39.539Z,6.76
2023-01-30T07:53:10.196Z,6.70
2023-01-30T07:55:38.327Z,6.63
2023-01-30T07:58:05.945Z,6.63
2023-01-30T08:00:34.272Z,6.64
2023-01-30T08:03:01.732Z,6.72
2023-01-30T08:05:29.360Z,6.78
2023-01-30T08:07:57.231Z,6.89
2023-01-30T08:10:24.968Z,6.88
2023-01-30T08:12:52.550Z,6.92
2023-01-30T08:15:22.760Z,6.96
2023-01-30T08:17:57.639Z,7.02
2023-01-30T08:20:26.520Z,7.02
2023-01-30T08:22:54.710Z,7.01
2023-01-30T08:25:23.043Z,7.05
2023-01-30T08:27:51.303Z,7.07
2023-01-30T08:30:20.203Z,6.98
2023-01-30T08:32:48.491Z,6.95
2023-01-30T08:35:16.168Z,6.96
2023-01-30T08:37:43.871Z,7.03
2023-01-30T08:40:12.100Z,7.03
2023-01-30T08:42:39.655Z,7.10
2023-01-30T08:45:07.855Z,7.20
2023-01-30T08:47:35.773Z,7.25
2023-01-30T08:50:04.980Z,7.33
2023-01-30T08:52:33.273Z,7.33
2023-01-30T08:55:01.022Z,7.32
2023-01-30T08:57:28.663Z,7.41
2023-01-30T08:59:56.175Z,7.38
2023-01-30T09:02:23.822Z,7.31
2023-01-30T09:04:51.238Z,7.38
2023-01-30T09:07:19.228Z,7.45
2023-01-30T09:09:48.679Z,7.44
2023-01-30T09:12:16.153Z,7.44
2023-01-30T09:14:43.607Z,7.49
2023-01-30T09:17:10.927Z,7.60
2023-01-30T09:19:38.575Z,7.60
2023-01-30T09:22:07.965Z,7.55
2023-01-30T09:24:35.597Z,7.66
2023-01-30T09:27:03.148Z,7.80
2023-01-30T09:29:30.731Z,7.99
2023-01-30T09:31:58.843Z,8.18
2023-01-30T09:34:28.869Z,8.32
2023-01-30T09:37:04.816Z,8.46
2023-01-30T09:39:32.709Z,8.65
2023-01-30T09:42:20.259Z,8.84
2023-01-30T09:44:59.678Z,8.97
2023-01-30T09:47:48.922Z,9.12
2023-01-30T09:50:39.974Z,9.12
2023-01-30T09:53:30.298Z,9.11
2023-01-30T09:56:01.783Z,8.96
2023-01-30T09:58:56.086Z,8.95
2023-01-30T10:01:34.623Z,8.91
2023-01-30T10:04:40.342Z,8.84
2023-01-30T10:07:10.973Z,8.86
2023-01-30T10:10:10.358Z,8.84
2023-01-30T10:12:44.558Z,8.82
2023-01-30T10:15:51.614Z,8.79
2023-01-30T10:18:34.204Z,8.83
2023-01-30T10:21:24.764Z,8.82
2023-01-30T10:24:25.049Z,8.87
2023-01-30T10:26:53.635Z,8.94
2023-01-30T10:29:23.669Z,9.07
2023-01-30T10:32:00.562Z,9.10
2023-01-30T10:34:40.447Z,9.13
2023-01-30T10:37:20.783Z,9.22
2023-01-30T10:40:10.968Z,9.30
2023-01-30T10:43:24.021Z,9.40
2023-01-30T10:45:56.991Z,9.61
2023-01-30T10:48:45.743Z,9.80
2023-01-30T10:51:34.349Z,9.99
2023-01-30T10:54:13.505Z,10.13
2023-01-30T10:57:12.517Z,10.14
2023-01-30T11:00:03.004Z,10.13
2023-01-30T11:03:18.218Z,10.05
2023-01-30T11:05:53.187Z,9.98
2023-01-30T11:08:26.507Z,9.92
2023-01-30T11:10:56.089Z,9.96
2023-01-30T11:13:32.071Z,10.01
2023-01-30T11:16:07.277Z,10.05
2023-01-30T11:21:43.436Z,9.95
2023-01-30T11:24:18.263Z,9.97
2023-01-30T11:26:48.460Z,10.04
2023-01-30T11:29:31.445Z,10.11
2023-01-30T11:32:13.025Z,10.11
2023-01-30T11:34:43.389Z,10.13
2023-01-30T11:37:23.558Z,10.20
2023-01-30T11:39:52.719Z,10.35
2023-01-30T11:42:31.087Z,10.38
2023-01-30T11:45:16.140Z,10.51
2023-01-30T11:47:57.639Z,10.61
2023-01-30T11:50:36.365Z,10.62
2023-01-30T11:53:20.964Z,10.64
2023-01-30T11:56:02.211Z,10.79
2023-01-30T11:58:33.653Z,10.86
2023-01-30T12:01:02.393Z,10.84
2023-01-30T12:03:30.601Z,10.83
2023-01-30T12:05:59.125Z,10.83
2023-01-30T12:08:43.605Z,10.84
2023-01-30T12:11:32.208Z,10.85
2023-01-30T12:14:19.236Z,10.89
2023-01-30T12:16:46.576Z,10.87
2023-01-30T12:19:43.111Z,10.85
2023-01-30T12:22:26.909Z,10.83
2023-01-30T12:25:00.087Z,10.80
2023-01-30T12:27:55.157Z,10.84
2023-01-30T12:33:10.740Z,10.66
2023-01-30T12:36:13.869Z,10.60
2023-01-30T12:38:58.231Z,10.65
2023-01-30T12:42:18.385Z,10.69
2023-01-30T12:45:13.586Z,10.74
2023-01-30T12:48:03.194Z,10.87
2023-01-30T12:50:55.717Z,10.97
2023-01-30T12:53:34.032Z,11.03
2023-01-30T12:56:26.172Z,11.05
2023-01-30T12:59:17.235Z,11.11
2023-01-30T13:02:25.451Z,11.06
2023-01-30T13:05:01.833Z,11.01
2023-01-30T13:07:48.205Z,11.03
2023-01-30T13:10:33.533Z,11.01
2023-01-30T13:13:43.151Z,10.97
2023-01-30T13:16:13.354Z,10.94
2023-01-30T13:18:45.416Z,10.95
2023-01-30T13:21:39.165Z,10.89
2023-01-30T13:24:40.636Z,10.84
2023-01-30T13:27:15.557Z,10.84
2023-01-30T13:29:44.421Z,10.90
2023-01-30T13:32:21.597Z,10.95
2023-01-30T13:34:50.300Z,10.99
2023-01-30T13:37:20.238Z,11.03
2023-01-30T13:40:01.040Z,11.04
2023-01-30T13:42:55.236Z,11.13
2023-01-30T13:45:27.244Z,11.23
2023-01-30T13:47:58.231Z,11.30
2023-01-30T13:51:03.338Z,11.31
2023-01-30T13:53:40.624Z,11.40
2023-01-30T13:56:39.546Z,11.44
2023-01-30T13:59:31.508Z,11.44
2023-01-30T14:02:08.471Z,11.45
2023-01-30T14:04:41.932Z,11.44
2023-01-30T14:07:10.156Z,11.53
2023-01-30T14:09:41.227Z,11.59
2023-01-30T14:12:22.728Z,11.51
2023-01-30T14:15:24.497Z,11.53
2023-01-30T14:18:02.539Z,11.58
2023-01-30T14:20:33.670Z,11.61
2023-01-30T14:23:19.184Z,11.65
2023-01-30T14:25:52.427Z,11.63
2023-01-30T14:28:20.100Z,11.59
2023-01-30T14:30:50.258Z,11.55
2023-01-30T14:33:23.895Z,11.58
2023-01-30T14:36:15.235Z,11.56
2023-01-30T14:38:44.688Z,11.52
2023-01-30T14:41:24.363Z,11.50
2023-01-30T14:43:53.947Z,11.45
2023-01-30T14:46:21.761Z,11.42
2023-01-30T14:48:53.533Z,11.39
2023-01-30T14:51:27.091Z,11.41
2023-01-30T14:54:03.385Z,11.40
2023-01-30T14:56:34.211Z,11.31
2023-01-30T14:59:06.100Z,11.30
2023-01-30T15:02:07.802Z,11.31
2023-01-30T15:05:04.175Z,11.33
2023-01-30T15:07:31.753Z,11.39
2023-01-30T15:10:13.446Z,11.36
2023-01-30T15:13:16.248Z,11.35
2023-01-30T15:15:43.680Z,11.34
2023-01-30T15:18:29.644Z,11.34
2023-01-30T15:21:09.487Z,11.32
2023-01-30T15:23:55.322Z,11.26
2023-01-30T15:26:28.741Z,11.33
2023-01-30T15:29:24.270Z,11.26
2023-01-30T15:32:00.159Z,11.12
2023-01-30T15:34:29.771Z,11.05
2023-01-30T15:36:57.886Z,11.17
2023-01-30T15:39:27.406Z,11.24
2023-01-30T15:42:06.782Z,11.32
2023-01-30T15:44:34.236Z,11.27
2023-01-30T15:47:20.229Z,11.28
2023-01-30T15:49:54.614Z,11.11
2023-01-30T15:52:28.982Z,11.18
2023-01-30T15:54:59.742Z,11.11
2023-01-30T15:57:31.615Z,11.07
2023-01-30T16:00:00.105Z,11.11
2023-01-30T16:02:36.393Z,11.14
2023-01-30T16:05:17.280Z,11.16
2023-01-30T16:07:48.032Z,11.08
2023-01-30T16:10:19.671Z,11.02
2023-01-30T16:12:49.395Z,10.95
2023-01-30T16:15:49.017Z,10.93
2023-01-30T16:18:50.051Z,10.89
2023-01-30T16:21:21.204Z,10.84
2023-01-30T16:24:06.677Z,10.77
2023-01-30T16:26:36.520Z,10.76
2023-01-30T16:29:14.021Z,10.79
2023-01-30T16:31:42.612Z,10.78
2023-01-30T16:34:30.683Z,10.86
2023-01-30T16:37:07.806Z,10.82
2023-01-30T16:39:36.752Z,10.79
2023-01-30T16:42:27.875Z,10.82
2023-01-30T16:45:29.138Z,10.66
2023-01-30T16:48:16.421Z,10.39
2023-01-30T16:50:49.298Z,10.17
2023-01-30T16:53:22.405Z,9.97
2023-01-30T16:56:10.115Z,9.72
2023-01-30T16:58:38.042Z,9.52
2023-01-30T17:01:08.226Z,9.44
2023-01-30T17:03:41.384Z,9.29
2023-01-30T17:06:31.555Z,9.23
2023-01-30T17:08:59.219Z,9.21
2023-01-30T17:11:34.634Z,9.16
2023-01-30T17:14:25.050Z,9.00
2023-01-30T17:17:12.105Z,8.98
2023-01-30T17:19:39.470Z,9.04
2023-01-30T17:22:16.236Z,8.97
2023-01-30T17:24:43.976Z,8.80
2023-01-30T17:27:11.495Z,8.76
2023-01-30T17:29:43.063Z,8.72
2023-01-30T17:32:13.934Z,8.67
2023-01-30T17:34:41.723Z,8.73
2023-01-30T17:37:24.160Z,8.59
2023-01-30T17:39:51.721Z,8.58
2023-01-30T17:42:21.137Z,8.60
2023-01-30T17:44:48.935Z,8.53
2023-01-30T17:47:16.557Z,8.55
2023-01-30T17:49:44.356Z,8.72
2023-01-30T17:52:13.670Z,8.60
2023-01-30T17:54:41.572Z,8.50
2023-01-30T17:57:12.946Z,8.44
2023-01-30T17:59:40.367Z,8.47
2023-01-30T18:02:09.703Z,8.44
2023-01-30T18:04:37.122Z,8.39
2023-01-30T18:07:06.470Z,8.41
2023-01-30T18:09:33.921Z,8.50
2023-01-30T18:12:01.883Z,8.46
2023-01-30T18:14:29.490Z,8.41
2023-01-30T18:17:00.308Z,8.40
2023-01-30T18:19:29.724Z,8.37
2023-01-30T18:21:58.530Z,8.36
2023-01-30T18:24:26.331Z,8.36
2023-01-30T18:26:53.805Z,8.41
2023-01-30T18:29:21.665Z,8.37
2023-01-30T18:31:49.459Z,8.45
2023-01-30T18:34:17.144Z,8.39
2023-01-30T18:36:44.693Z,8.38
2023-01-30T18:39:12.709Z,8.30
2023-01-30T18:41:40.604Z,8.31
2023-01-30T18:44:08.045Z,8.18
2023-01-30T18:46:35.706Z,8.09
2023-01-30T18:49:03.238Z,8.06
2023-01-30T18:51:34.091Z,8.04
2023-01-30T18:54:02.567Z,7.98
2023-01-30T18:56:33.380Z,7.95
2023-01-30T18:59:04.279Z,7.86
2023-01-30T19:01:35.647Z,7.81
2023-01-30T19:04:05.032Z,7.80
2023-01-30T19:06:35.413Z,7.83
2023-01-30T19:09:03.586Z,7.81
2023-01-30T19:11:50.176Z,7.78
2023-01-30T19:14:17.874Z,7.76
2023-01-30T19:16:45.356Z,7.76
2023-01-30T19:19:13.170Z,7.81
2023-01-30T19:21:40.729Z,7.79
2023-01-30T19:24:13.019Z,7.82
2023-01-30T19:26:40.810Z,7.87
2023-01-30T19:29:09.397Z,7.83
2023-01-30T19:31:37.479Z,7.88
2023-01-30T19:34:06.500Z,7.90
2023-01-30T19:36:36.256Z,7.91
2023-01-30T19:39:06.277Z,7.97
2023-01-30T19:41:36.003Z,8.02
2023-01-30T19:44:06.211Z,8.05
2023-01-30T19:46:34.292Z,8.08
2023-01-30T19:49:03.526Z,8.17
2023-01-30T19:51:34.838Z,8.14
2023-01-30T19:54:05.311Z,8.09
2023-01-30T19:56:33.967Z,8.10
2023-01-30T19:59:02.401Z,8.05
2023-01-30T20:01:33.039Z,8.02
2023-01-30T20:04:02.589Z,8.08
2023-01-30T20:06:32.066Z,8.14
2023-01-30T20:09:05.369Z,8.11
2023-01-30T20:11:37.443Z,8.21
2023-01-30T20:14:07.140Z,8.19
2023-01-30T20:16:35.916Z,8.41
2023-01-30T20:19:07.423Z,8.38
2023-01-30T20:21:36.146Z,8.56
2023-01-30T20:24:04.632Z,8.69
2023-01-30T20:26:35.389Z,8.61
2023-01-30T20:29:04.992Z,8.44
2023-01-30T20:31:34.936Z,8.35
2023-01-30T20:34:04.174Z,8.32
2023-01-30T20:36:31.676Z,8.27
2023-01-30T20:39:04.499Z,8.33
2023-01-30T20:41:33.585Z,8.35
2023-01-30T20:44:01.241Z,8.44
2023-01-30T20:46:31.673Z,8.60
2023-01-30T20:49:01.605Z,8.56
2023-01-30T20:51:32.178Z,8.47
2023-01-30T20:54:06.410Z,8.43
2023-01-30T20:56:37.282Z,8.43
2023-01-30T20:59:06.699Z,8.45
2023-01-30T21:01:34.685Z,8.50
2023-01-30T21:04:08.293Z,8.47
2023-01-30T21:06:42.062Z,8.49
2023-01-30T21:09:18.437Z,8.55
2023-01-30T21:11:46.224Z,8.54
2023-01-30T21:14:14.918Z,8.59
2023-01-30T21:16:42.762Z,8.55
2023-01-30T21:19:15.247Z,8.54
2023-01-30T21:21:53.459Z,8.52
2023-01-30T21:24:27.491Z,8.51
2023-01-30T21:26:55.744Z,8.44
2023-01-30T21:29:25.995Z,8.41
2023-01-30T21:31:54.103Z,8.38
2023-01-30T21:34:21.759Z,8.37
2023-01-30T21:37:09.607Z,8.36
2023-01-30T21:39:55.615Z,8.35
2023-01-30T21:42:44.851Z,8.35
2023-01-30T21:45:12.392Z,8.34
2023-01-30T21:47:39.959Z,8.36
2023-01-30T21:50:08.134Z,8.40
2023-01-30T21:52:35.661Z,8.46
2023-01-30T21:55:03.533Z,8.44
2023-01-30T21:57:30.966Z,8.41
2023-01-30T21:59:58.449Z,8.42
2023-01-30T22:02:25.876Z,8.42
2023-01-30T22:04:53.399Z,8.42
2023-01-30T22:07:20.868Z,8.40
2023-01-30T22:09:49.006Z,8.41
2023-01-30T22:12:16.515Z,8.38
2023-01-30T22:14:43.987Z,8.39
2023-01-30T22:17:11.319Z,8.39
2023-01-30T22:19:38.616Z,8.43
2023-01-30T22:22:06.154Z,8.48
2023-01-30T22:24:33.697Z,8.47
2023-01-30T22:27:01.167Z,8.49
2023-01-30T22:29:29.255Z,8.47
2023-01-30T22:31:56.717Z,8.47
2023-01-30T22:34:24.440Z,8.47
2023-01-30T22:36:52.024Z,8.44
2023-01-30T22:39:20.028Z,8.42
2023-01-30T22:41:47.449Z,8.40
2023-01-30T22:44:15.017Z,8.36
2023-01-30T22:46:42.617Z,8.35
2023-01-30T22:49:10.369Z,8.31
2023-01-30T22:51:40.869Z,8.29
2023-01-30T22:54:17.316Z,8.28
2023-01-30T22:56:49.219Z,8.29
2023-01-30T22:59:17.041Z,8.35
2023-01-30T23:01:47.080Z,8.42
2023-01-30T23:04:17.731Z,8.42
2023-01-30T23:06:46.089Z,8.39
2023-01-30T23:09:22.684Z,8.32
2023-01-30T23:12:13.867Z,8.30
2023-01-30T23:14:42.943Z,8.33
2023-01-30T23:17:28.838Z,8.35
2023-01-30T23:19:56.949Z,8.39
2023-01-30T23:22:24.660Z,8.36
2023-01-30T23:24:54.993Z,8.33
2023-01-30T23:27:22.531Z,8.32
2023-01-30T23:29:49.959Z,8.25
2023-01-30T23:32:20.395Z,8.18
2023-01-30T23:34:48.385Z,8.07
2023-01-30T23:37:16.720Z,8.02
2023-01-30T23:39:45.202Z,8.06
2023-01-30T23:42:12.666Z,8.15
2023-01-30T23:44:40.198Z,8.16
2023-01-30T23:47:07.681Z,8.22
2023-01-30T23:49:35.396Z,8.20
2023-01-30T23:52:02.993Z,8.17
2023-01-30T23:54:30.611Z,8.20
2023-01-30T23:56:58.136Z,8.15
2023-01-30T23:59:25.360Z,8.23
